Tri Cities Regional Tn Va Airport
KTRI : now visible

Airfield :











YOU CAN JOIN US ON...

 
LOGIN :

Register | Disclaimer

   EN    FR    IT 

 









Legend :    VFR   Marginal VFR   IFR   Intensive IFR   Very Intensive IFR
Visi :
Ceiling :
>= 8 km
>= 3000ft
5 to 8 km
1000 to 3000 ft
1500m to 5 km
500 to 1000 ft
800 to 1500m
200 to 500 ft
< 800m
< 200 ft
Symbols :   Thunderstorms  Fog  Heavy snow  Heavy precipitations  Wind > 20 kt






- Airport Elevation : 1519 ft
- IATA code : TRI


KTRI - Tri Cities Regional Tn Va

CURRENT METAR :
  • 280553Z 00000KT 10SM CLR 13/12 A2993 RMK AO2 SLP116 60000 T01280117 10194 20128 58001 $

EXPIRED METARs :
  • 280453Z 00000KT 10SM FEW075 14/12 A2994 RMK AO2 SLP119 T01390117 402280139 $

TAF KTRI
Valid from the 28 at 06:00 until the 29 at 06:00 UTC


280520Z 2806/2906 23004KT P6SM FEW060
FM280900 24004KT P6SM SCT019
TEMPO 2810/2814 SCT003 BKN019
FM281500 26006KT P6SM SCT025
KZTL FIR / North America



MET'MAP, your aeronautical weather chart ! - Copyright ORBIFLY December 2007 - Disclaimer

ORBIFLY MET'MAP TEAM :

Programming & Development : Alexandra Zaïnal
Original concept : Baudouin d'Aumeries
Technical & hardware support : Manuel Goepfert
Assistance : Marc-Olivier Méhu

Contact : metmap@orbifly.com




SOURCES & CREDITS :

   NOAA       Earth
Advisory